Time;durP1;ratioP1;P1;durP2;ratioP2;P2;SDS_P1;SDS_P2;PMS_P1;PMS_P2;Temp;Humidity;BMP_temperature;BMP_pressure;BME280_temperature;BME280_humidity;BME280_pressure;Samples;Min_cycle;Max_cycle;Signal;HPM_P1;HPM_P2
2022/09/18 00:01:11;;;;;;;;;;;21.70;44.60;;;;;;484328;246;1342;-74
2022/09/18 00:03:12;;;;;;;;;;;21.70;44.60;;;;;;484640;246;2195;-74
2022/09/18 00:05:14;;;;;;;;;;;21.70;44.50;;;;;;484336;246;1140;-74
2022/09/18 00:07:15;;;;;;;;;;;21.70;44.60;;;;;;484370;246;1208;-74
2022/09/18 00:09:16;;;;;;;;;;;21.70;44.70;;;;;;484307;246;1256;-73
2022/09/18 00:11:18;;;;;;;;;;;21.70;44.50;;;;;;484408;246;1241;-74
2022/09/18 00:13:19;;;;;;;;;;;21.70;44.50;;;;;;484326;246;1211;-74
2022/09/18 00:15:20;;;;;;;;;;;21.70;44.50;;;;;;484323;246;1229;-74
2022/09/18 00:17:22;;;;;;;;;;;21.60;44.60;;;;;;484495;246;1148;-73
2022/09/18 00:19:23;;;;;;;;;;;21.70;44.60;;;;;;484367;246;1271;-74
2022/09/18 00:21:24;;;;;;;;;;;21.70;44.50;;;;;;484376;246;1208;-73
2022/09/18 00:23:26;;;;;;;;;;;21.60;44.40;;;;;;484613;246;2191;-73
2022/09/18 00:25:27;;;;;;;;;;;21.60;44.50;;;;;;484360;246;1140;-73
2022/09/18 00:27:28;;;;;;;;;;;21.60;44.60;;;;;;484323;246;1345;-74
2022/09/18 00:29:30;;;;;;;;;;;21.60;44.50;;;;;;484504;246;1108;-74
2022/09/18 00:31:31;;;;;;;;;;;21.60;44.40;;;;;;484629;246;1252;-74
2022/09/18 00:33:32;;;;;;;;;;;21.60;44.50;;;;;;484806;246;1105;-74
2022/09/18 00:35:34;;;;;;;;;;;21.60;44.40;;;;;;484313;246;1244;-74
2022/09/18 00:37:35;;;;;;;;;;;21.50;44.40;;;;;;484452;246;1143;-74
2022/09/18 00:39:36;;;;;;;;;;;21.60;44.50;;;;;;484525;246;1165;-73
2022/09/18 00:41:38;;;;;;;;;;;21.60;44.40;;;;;;484307;246;1155;-73
2022/09/18 00:43:39;;;;;;;;;;;21.60;44.30;;;;;;484324;246;2200;-73
2022/09/18 00:45:40;;;;;;;;;;;21.60;44.30;;;;;;484312;246;1118;-73
2022/09/18 00:47:42;;;;;;;;;;;21.70;44.20;;;;;;484439;246;1201;-73
2022/09/18 00:49:43;;;;;;;;;;;21.60;44.30;;;;;;484300;246;1263;-73
2022/09/18 00:51:44;;;;;;;;;;;21.60;44.30;;;;;;484329;246;1115;-73
2022/09/18 00:53:46;;;;;;;;;;;21.60;44.20;;;;;;484333;243;1191;-73
2022/09/18 00:55:47;;;;;;;;;;;21.60;44.20;;;;;;484299;243;1131;-73
2022/09/18 00:57:48;;;;;;;;;;;21.60;44.10;;;;;;484463;246;1139;-73
2022/09/18 00:59:50;;;;;;;;;;;21.60;44.00;;;;;;484395;246;1104;-73
2022/09/18 01:01:51;;;;;;;;;;;21.60;43.90;;;;;;484520;246;1159;-74
2022/09/18 01:03:52;;;;;;;;;;;21.70;44.00;;;;;;484319;246;2184;-73
2022/09/18 01:05:54;;;;;;;;;;;21.60;44.00;;;;;;484493;246;1186;-73
2022/09/18 01:07:55;;;;;;;;;;;21.60;44.10;;;;;;484342;246;1048;-73
2022/09/18 01:09:56;;;;;;;;;;;21.60;44.10;;;;;;484305;246;1057;-73
2022/09/18 01:11:58;;;;;;;;;;;21.50;44.10;;;;;;484380;246;1145;-73
2022/09/18 01:13:59;;;;;;;;;;;21.60;44.10;;;;;;484319;246;1233;-73
2022/09/18 01:16:00;;;;;;;;;;;21.60;44.10;;;;;;484351;242;1139;-74
2022/09/18 01:18:02;;;;;;;;;;;21.60;44.10;;;;;;484389;246;1150;-74
2022/09/18 01:20:03;;;;;;;;;;;21.50;44.00;;;;;;484368;246;1606;-74
2022/09/18 01:22:04;;;;;;;;;;;21.60;44.10;;;;;;484433;246;1214;-74
2022/09/18 01:24:06;;;;;;;;;;;21.50;44.00;;;;;;484476;246;2196;-74
2022/09/18 01:26:07;;;;;;;;;;;21.60;44.00;;;;;;484348;246;1323;-74
2022/09/18 01:28:08;;;;;;;;;;;21.60;43.90;;;;;;484433;246;1296;-74
2022/09/18 01:30:10;;;;;;;;;;;21.60;44.00;;;;;;484398;246;1233;-74
2022/09/18 01:32:11;;;;;;;;;;;21.60;43.90;;;;;;484411;246;1217;-73
2022/09/18 01:34:12;;;;;;;;;;;21.50;43.90;;;;;;484369;246;1221;-73
2022/09/18 01:36:14;;;;;;;;;;;21.60;44.00;;;;;;484316;246;1248;-74
2022/09/18 01:38:15;;;;;;;;;;;21.60;44.00;;;;;;484506;246;1324;-74
2022/09/18 01:40:16;;;;;;;;;;;21.50;43.90;;;;;;484328;242;1167;-74
2022/09/18 01:42:18;;;;;;;;;;;21.60;44.00;;;;;;484395;246;1247;-74
2022/09/18 01:44:19;;;;;;;;;;;21.60;43.90;;;;;;484379;246;2196;-73
2022/09/18 01:46:21;;;;;;;;;;;21.50;43.90;;;;;;484340;246;1185;-73
2022/09/18 01:48:22;;;;;;;;;;;21.50;44.00;;;;;;484423;246;1143;-73
2022/09/18 01:50:23;;;;;;;;;;;21.50;43.90;;;;;;484552;246;1161;-74
2022/09/18 01:52:24;;;;;;;;;;;21.50;43.90;;;;;;484374;246;1178;-74
2022/09/18 01:54:26;;;;;;;;;;;21.60;43.80;;;;;;484342;246;1092;-74
2022/09/18 01:56:27;;;;;;;;;;;21.60;43.80;;;;;;484358;246;1290;-74
2022/09/18 01:58:29;;;;;;;;;;;21.60;43.80;;;;;;484466;246;1122;-74
2022/09/18 02:00:30;;;;;;;;;;;21.60;43.80;;;;;;484398;246;1218;-74
2022/09/18 02:02:31;;;;;;;;;;;21.60;43.70;;;;;;484363;246;1130;-74
2022/09/18 02:04:33;;;;;;;;;;;21.60;43.70;;;;;;484329;246;2204;-74
2022/09/18 02:06:34;;;;;;;;;;;21.60;43.60;;;;;;484381;246;1174;-74
2022/09/18 02:08:36;;;;;;;;;;;21.60;43.60;;;;;;484315;246;1221;-74
2022/09/18 02:10:37;;;;;;;;;;;21.60;43.80;;;;;;484304;246;1152;-74
2022/09/18 02:12:38;;;;;;;;;;;21.60;43.70;;;;;;484567;246;1265;-74
2022/09/18 02:14:39;;;;;;;;;;;21.60;43.60;;;;;;484330;246;1138;-74
2022/09/18 02:16:41;;;;;;;;;;;21.60;43.70;;;;;;484586;246;1240;-73
2022/09/18 02:18:42;;;;;;;;;;;21.60;43.70;;;;;;484519;246;1242;-73
2022/09/18 02:20:43;;;;;;;;;;;21.60;43.70;;;;;;484331;246;1179;-73
2022/09/18 02:22:45;;;;;;;;;;;21.60;43.80;;;;;;484364;246;1158;-73
2022/09/18 02:24:46;;;;;;;;;;;21.50;43.80;;;;;;484332;246;2207;-73
2022/09/18 02:26:47;;;;;;;;;;;21.50;43.80;;;;;;484307;246;1189;-74
2022/09/18 02:28:49;;;;;;;;;;;21.60;43.80;;;;;;484378;246;1219;-74
2022/09/18 02:30:50;;;;;;;;;;;21.60;43.80;;;;;;484292;242;1290;-74
2022/09/18 02:32:51;;;;;;;;;;;21.60;43.80;;;;;;484430;242;1201;-74
2022/09/18 02:34:53;;;;;;;;;;;21.50;43.80;;;;;;484364;246;1216;-74
2022/09/18 02:36:54;;;;;;;;;;;21.50;43.90;;;;;;484336;246;1261;-74
2022/09/18 02:38:55;;;;;;;;;;;21.60;43.80;;;;;;484530;246;1182;-73
2022/09/18 02:40:57;;;;;;;;;;;21.60;43.80;;;;;;484284;246;1129;-73
2022/09/18 02:42:58;;;;;;;;;;;21.60;43.70;;;;;;484352;243;1172;-73
2022/09/18 02:44:59;;;;;;;;;;;21.60;43.90;;;;;;484441;246;2159;-73
2022/09/18 02:47:01;;;;;;;;;;;21.60;43.80;;;;;;484332;246;1119;-73
2022/09/18 02:49:03;;;;;;;;;;;21.60;43.80;;;;;;484450;246;1227;-73
2022/09/18 02:51:04;;;;;;;;;;;21.60;43.80;;;;;;484308;246;1354;-73
2022/09/18 02:53:05;;;;;;;;;;;21.60;43.80;;;;;;484657;246;1272;-74
2022/09/18 02:55:06;;;;;;;;;;;21.60;43.80;;;;;;484311;246;1164;-74
2022/09/18 02:57:09;;;;;;;;;;;21.60;43.90;;;;;;484601;246;1196;-74
2022/09/18 02:59:09;;;;;;;;;;;21.50;43.90;;;;;;484285;246;1689;-74
2022/09/18 03:01:10;;;;;;;;;;;21.60;44.00;;;;;;484339;246;1100;-74
2022/09/18 03:03:12;;;;;;;;;;;21.60;44.00;;;;;;484341;246;1148;-74
2022/09/18 03:05:13;;;;;;;;;;;21.50;44.00;;;;;;484639;246;2178;-74
2022/09/18 03:07:15;;;;;;;;;;;21.50;44.10;;;;;;484828;246;1178;-74
2022/09/18 03:09:16;;;;;;;;;;;21.60;44.00;;;;;;484305;246;1101;-74
2022/09/18 03:11:17;;;;;;;;;;;21.60;44.00;;;;;;484338;246;1161;-74
2022/09/18 03:13:18;;;;;;;;;;;21.60;44.10;;;;;;484326;246;1084;-74
2022/09/18 03:15:21;;;;;;;;;;;21.60;44.00;;;;;;484529;246;1086;-74
2022/09/18 03:17:21;;;;;;;;;;;21.50;44.00;;;;;;484074;246;1475;-74
2022/09/18 03:19:22;;;;;;;;;;;21.60;44.10;;;;;;484343;246;1191;-74
2022/09/18 03:21:24;;;;;;;;;;;21.50;43.90;;;;;;484264;246;1378;-74
2022/09/18 03:23:25;;;;;;;;;;;21.60;44.10;;;;;;484358;246;1193;-73
2022/09/18 03:25:26;;;;;;;;;;;21.60;44.10;;;;;;484408;246;2199;-74
2022/09/18 03:27:28;;;;;;;;;;;21.60;44.10;;;;;;484191;242;1213;-74
2022/09/18 03:29:29;;;;;;;;;;;21.50;44.10;;;;;;484356;246;1233;-74
2022/09/18 03:31:30;;;;;;;;;;;21.50;44.10;;;;;;484370;246;1237;-74
2022/09/18 03:33:32;;;;;;;;;;;21.50;44.00;;;;;;484380;246;1174;-74
2022/09/18 03:35:33;;;;;;;;;;;21.60;44.10;;;;;;484365;246;1263;-74
2022/09/18 03:37:34;;;;;;;;;;;21.50;44.20;;;;;;484826;246;1040;-74
2022/09/18 03:39:36;;;;;;;;;;;21.60;44.00;;;;;;484443;246;1069;-74
2022/09/18 03:41:37;;;;;;;;;;;21.60;44.10;;;;;;484323;246;1166;-74
2022/09/18 03:43:39;;;;;;;;;;;21.60;44.00;;;;;;484359;246;1103;-74
2022/09/18 03:45:40;;;;;;;;;;;21.60;44.10;;;;;;484480;246;2199;-74
2022/09/18 03:47:42;;;;;;;;;;;21.60;44.00;;;;;;484309;246;1200;-74
2022/09/18 03:49:43;;;;;;;;;;;21.60;44.00;;;;;;484360;246;1277;-74
2022/09/18 03:51:44;;;;;;;;;;;21.60;44.10;;;;;;484336;246;1258;-74
2022/09/18 03:53:45;;;;;;;;;;;21.60;44.10;;;;;;484369;246;1235;-74
2022/09/18 03:55:47;;;;;;;;;;;21.60;44.10;;;;;;484303;246;1326;-73
2022/09/18 03:57:49;;;;;;;;;;;21.50;44.10;;;;;;484517;246;1240;-73
2022/09/18 03:59:49;;;;;;;;;;;21.60;44.10;;;;;;484240;246;1429;-74
2022/09/18 04:01:51;;;;;;;;;;;21.60;44.20;;;;;;484329;246;1190;-74
2022/09/18 04:03:52;;;;;;;;;;;21.50;44.10;;;;;;484381;243;1218;-74
2022/09/18 04:05:53;;;;;;;;;;;21.50;44.20;;;;;;484309;246;2180;-74
2022/09/18 04:07:55;;;;;;;;;;;21.50;44.20;;;;;;484336;246;1175;-74
2022/09/18 04:09:57;;;;;;;;;;;21.50;44.20;;;;;;484319;246;1117;-74
2022/09/18 04:11:57;;;;;;;;;;;21.50;44.20;;;;;;484358;246;1384;-74
2022/09/18 04:13:59;;;;;;;;;;;21.50;44.20;;;;;;484339;246;1335;-74
2022/09/18 04:16:00;;;;;;;;;;;21.50;44.20;;;;;;484337;246;1335;-74
2022/09/18 04:18:01;;;;;;;;;;;21.60;44.20;;;;;;484338;246;1306;-74
2022/09/18 04:20:03;;;;;;;;;;;21.60;44.00;;;;;;484312;246;1149;-74
2022/09/18 04:22:04;;;;;;;;;;;21.60;44.10;;;;;;484460;246;1290;-74
2022/09/18 04:24:05;;;;;;;;;;;21.60;44.10;;;;;;484296;246;2192;-74
2022/09/18 04:26:09;;;;;;;;;;;21.60;44.10;;;;;;484406;246;1203;-74
2022/09/18 04:28:09;;;;;;;;;;;21.60;44.20;;;;;;484506;246;1411;-74
2022/09/18 04:30:11;;;;;;;;;;;21.60;44.00;;;;;;484390;246;1179;-74
2022/09/18 04:32:12;;;;;;;;;;;21.60;44.20;;;;;;484519;246;1116;-74
2022/09/18 04:34:14;;;;;;;;;;;21.60;44.20;;;;;;484317;246;1170;-74
2022/09/18 04:36:15;;;;;;;;;;;21.60;44.20;;;;;;484381;246;1389;-74
2022/09/18 04:38:16;;;;;;;;;;;21.60;44.10;;;;;;484395;246;1310;-74
2022/09/18 04:40:17;;;;;;;;;;;21.60;44.20;;;;;;484356;246;1134;-73
2022/09/18 04:42:19;;;;;;;;;;;21.50;44.10;;;;;;484381;246;1173;-73
2022/09/18 04:44:20;;;;;;;;;;;21.50;44.20;;;;;;484307;246;2188;-74
2022/09/18 04:46:21;;;;;;;;;;;21.50;44.20;;;;;;484454;246;1194;-74
2022/09/18 04:48:23;;;;;;;;;;;21.50;44.20;;;;;;484348;246;1203;-74
2022/09/18 04:50:24;;;;;;;;;;;21.60;44.20;;;;;;484441;246;1221;-74
2022/09/18 04:52:25;;;;;;;;;;;21.50;44.20;;;;;;484292;246;1135;-74
2022/09/18 04:54:27;;;;;;;;;;;21.50;44.20;;;;;;484346;246;1442;-74
2022/09/18 04:56:28;;;;;;;;;;;21.50;44.20;;;;;;484416;246;1168;-74
2022/09/18 04:58:29;;;;;;;;;;;21.40;44.30;;;;;;484272;242;1408;-73
2022/09/18 05:00:31;;;;;;;;;;;21.50;44.30;;;;;;484412;246;1209;-73
2022/09/18 05:02:32;;;;;;;;;;;21.50;44.20;;;;;;484306;246;1470;-73
2022/09/18 05:04:33;;;;;;;;;;;21.50;44.20;;;;;;484335;246;2180;-73
2022/09/18 05:06:35;;;;;;;;;;;21.40;44.40;;;;;;484341;246;1213;-73
2022/09/18 05:08:37;;;;;;;;;;;21.40;44.60;;;;;;484327;246;1143;-73
2022/09/18 05:10:38;;;;;;;;;;;21.40;44.50;;;;;;484363;246;1350;-73
2022/09/18 05:12:43;;;;;;;;;;;21.40;44.60;;;;;;484353;242;1370;-73
2022/09/18 05:14:44;;;;;;;;;;;21.40;44.70;;;;;;484282;246;1489;-73
2022/09/18 05:16:45;;;;;;;;;;;21.30;44.70;;;;;;484352;246;1147;-73
2022/09/18 05:18:47;;;;;;;;;;;21.30;44.70;;;;;;484630;246;1177;-74
2022/09/18 05:20:48;;;;;;;;;;;21.20;44.80;;;;;;484347;246;1030;-74
2022/09/18 05:22:49;;;;;;;;;;;21.30;44.70;;;;;;484442;246;1137;-74
2022/09/18 05:24:51;;;;;;;;;;;21.30;44.80;;;;;;484290;246;2188;-74
2022/09/18 05:26:52;;;;;;;;;;;21.30;44.90;;;;;;484384;246;1169;-74
2022/09/18 05:28:53;;;;;;;;;;;21.20;44.90;;;;;;484393;246;1164;-74
2022/09/18 05:30:55;;;;;;;;;;;21.20;45.00;;;;;;484332;246;1184;-74
2022/09/18 05:32:56;;;;;;;;;;;21.20;45.00;;;;;;484328;246;1189;-74
2022/09/18 05:34:57;;;;;;;;;;;21.20;44.90;;;;;;484354;246;1146;-74
2022/09/18 05:36:59;;;;;;;;;;;21.20;45.00;;;;;;484336;246;1302;-74
2022/09/18 05:39:00;;;;;;;;;;;21.20;45.10;;;;;;484404;246;1179;-74
2022/09/18 05:41:01;;;;;;;;;;;21.20;45.10;;;;;;484348;246;1260;-74
2022/09/18 05:43:03;;;;;;;;;;;21.10;45.10;;;;;;484327;246;1189;-74
2022/09/18 05:45:04;;;;;;;;;;;21.10;45.20;;;;;;484322;246;2188;-74
2022/09/18 05:47:05;;;;;;;;;;;21.10;45.30;;;;;;484351;246;1223;-74
2022/09/18 05:49:07;;;;;;;;;;;21.10;45.30;;;;;;484472;246;1160;-74
2022/09/18 05:51:08;;;;;;;;;;;21.10;45.30;;;;;;484263;246;1187;-74
2022/09/18 05:53:09;;;;;;;;;;;21.10;45.30;;;;;;484279;246;1176;-74
2022/09/18 05:55:11;;;;;;;;;;;21.20;45.20;;;;;;484259;246;1180;-73
2022/09/18 05:57:12;;;;;;;;;;;21.20;45.20;;;;;;484363;246;1251;-74
2022/09/18 05:59:13;;;;;;;;;;;21.20;45.00;;;;;;484266;246;1167;-74
2022/09/18 06:01:15;;;;;;;;;;;21.20;45.10;;;;;;484472;246;1278;-74
2022/09/18 06:03:16;;;;;;;;;;;21.30;45.00;;;;;;484264;246;1207;-74
2022/09/18 06:05:17;;;;;;;;;;;21.20;45.00;;;;;;484368;246;3003;-74
2022/09/18 06:07:19;;;;;;;;;;;21.30;45.00;;;;;;484299;246;1343;-74
2022/09/18 06:09:20;;;;;;;;;;;21.30;45.00;;;;;;484496;246;1176;-74
2022/09/18 06:11:21;;;;;;;;;;;21.40;44.90;;;;;;484362;246;1148;-74
2022/09/18 06:13:23;;;;;;;;;;;21.30;44.90;;;;;;484305;246;1120;-74
2022/09/18 06:15:24;;;;;;;;;;;21.40;44.80;;;;;;484373;242;1144;-74
2022/09/18 06:17:26;;;;;;;;;;;21.40;44.70;;;;;;484339;246;1169;-74
2022/09/18 06:19:27;;;;;;;;;;;21.40;44.80;;;;;;484355;246;1328;-73
2022/09/18 06:21:28;;;;;;;;;;;21.40;44.90;;;;;;484414;246;1238;-73
2022/09/18 06:23:29;;;;;;;;;;;21.40;44.90;;;;;;484600;246;1224;-74
2022/09/18 06:25:31;;;;;;;;;;;21.40;44.80;;;;;;484337;246;2195;-74
2022/09/18 06:27:32;;;;;;;;;;;21.40;44.90;;;;;;484641;246;1229;-74
2022/09/18 06:29:33;;;;;;;;;;;21.40;44.80;;;;;;484288;246;1393;-74
2022/09/18 06:31:35;;;;;;;;;;;21.40;44.70;;;;;;484407;246;1167;-74
2022/09/18 06:33:36;;;;;;;;;;;21.40;44.80;;;;;;484297;246;1280;-74
2022/09/18 06:35:38;;;;;;;;;;;21.50;44.80;;;;;;484386;246;1206;-74
2022/09/18 06:37:39;;;;;;;;;;;21.50;44.70;;;;;;484273;246;1463;-74
2022/09/18 06:39:40;;;;;;;;;;;21.50;44.60;;;;;;484286;246;1503;-74
2022/09/18 06:41:42;;;;;;;;;;;21.50;44.70;;;;;;484288;246;1159;-74
2022/09/18 06:43:43;;;;;;;;;;;21.50;44.60;;;;;;484437;246;1259;-74
2022/09/18 06:45:45;;;;;;;;;;;21.50;44.80;;;;;;484260;246;2161;-74
2022/09/18 06:47:46;;;;;;;;;;;21.50;44.70;;;;;;484644;246;1163;-74
2022/09/18 06:49:47;;;;;;;;;;;21.50;44.70;;;;;;484317;246;1278;-74
2022/09/18 06:51:49;;;;;;;;;;;21.50;44.70;;;;;;484341;246;1216;-74
2022/09/18 06:53:50;;;;;;;;;;;21.50;44.70;;;;;;484340;246;1622;-74
2022/09/18 06:55:51;;;;;;;;;;;21.50;44.70;;;;;;484272;246;1142;-74
2022/09/18 06:57:53;;;;;;;;;;;21.50;44.80;;;;;;484310;246;1127;-74
2022/09/18 06:59:54;;;;;;;;;;;21.40;44.70;;;;;;484384;246;1325;-74
2022/09/18 07:01:55;;;;;;;;;;;21.40;44.80;;;;;;484356;246;1135;-74
2022/09/18 07:03:57;;;;;;;;;;;21.40;45.00;;;;;;484785;246;1119;-74
2022/09/18 07:05:58;;;;;;;;;;;21.40;44.90;;;;;;484373;246;2153;-74
2022/09/18 07:08:00;;;;;;;;;;;21.40;45.00;;;;;;484684;246;1256;-74
2022/09/18 07:10:01;;;;;;;;;;;21.40;45.00;;;;;;484361;246;1190;-74
2022/09/18 07:12:02;;;;;;;;;;;21.40;45.00;;;;;;484768;246;1345;-74
2022/09/18 07:14:03;;;;;;;;;;;21.40;44.90;;;;;;484823;246;1139;-74
2022/09/18 07:16:05;;;;;;;;;;;21.40;44.80;;;;;;484293;246;1229;-73
2022/09/18 07:18:06;;;;;;;;;;;21.50;44.90;;;;;;484389;246;1162;-73
2022/09/18 07:20:07;;;;;;;;;;;21.40;45.00;;;;;;484295;246;1210;-73
2022/09/18 07:22:09;;;;;;;;;;;21.40;44.90;;;;;;484755;246;1184;-74
2022/09/18 07:24:10;;;;;;;;;;;21.30;45.00;;;;;;484283;246;1165;-74
2022/09/18 07:26:11;;;;;;;;;;;21.40;45.00;;;;;;484306;246;2184;-74
2022/09/18 07:28:13;;;;;;;;;;;21.40;44.90;;;;;;484356;246;1229;-73
2022/09/18 07:30:14;;;;;;;;;;;21.40;45.00;;;;;;484639;246;1180;-73
2022/09/18 07:32:15;;;;;;;;;;;21.40;45.00;;;;;;484364;246;1234;-74
2022/09/18 07:34:17;;;;;;;;;;;21.30;45.20;;;;;;484690;246;1211;-74
2022/09/18 07:36:18;;;;;;;;;;;21.30;45.30;;;;;;484369;246;1188;-73
2022/09/18 07:38:19;;;;;;;;;;;21.30;45.20;;;;;;484332;246;1199;-73
2022/09/18 07:40:21;;;;;;;;;;;21.30;45.30;;;;;;484308;246;1108;-74
2022/09/18 07:42:22;;;;;;;;;;;21.30;45.30;;;;;;484313;246;1277;-74
2022/09/18 07:44:25;;;;;;;;;;;21.30;45.30;;;;;;484674;246;1112;-74
2022/09/18 07:46:25;;;;;;;;;;;21.20;45.40;;;;;;484236;246;2191;-74
2022/09/18 07:48:26;;;;;;;;;;;21.20;45.50;;;;;;484631;246;1039;-74
2022/09/18 07:50:27;;;;;;;;;;;21.30;45.40;;;;;;484406;246;1066;-74
2022/09/18 07:52:29;;;;;;;;;;;21.20;45.60;;;;;;484361;246;1046;-74
2022/09/18 07:54:30;;;;;;;;;;;21.30;45.60;;;;;;484304;246;1080;-74
2022/09/18 07:56:31;;;;;;;;;;;21.20;45.50;;;;;;484732;246;1223;-73
2022/09/18 07:58:33;;;;;;;;;;;21.30;45.50;;;;;;484295;246;1195;-73
2022/09/18 08:00:34;;;;;;;;;;;21.30;45.60;;;;;;484553;246;1472;-73
2022/09/18 08:02:35;;;;;;;;;;;21.20;45.60;;;;;;484315;246;1196;-74
2022/09/18 08:04:37;;;;;;;;;;;21.20;45.90;;;;;;484303;246;1321;-74
2022/09/18 08:06:38;;;;;;;;;;;21.10;45.80;;;;;;484304;246;2204;-74
2022/09/18 08:08:39;;;;;;;;;;;21.20;45.80;;;;;;484385;246;1323;-73
2022/09/18 08:10:41;;;;;;;;;;;21.20;45.80;;;;;;484363;246;1233;-73
2022/09/18 08:12:42;;;;;;;;;;;21.20;46.00;;;;;;484310;246;1275;-73
2022/09/18 08:14:43;;;;;;;;;;;21.10;46.00;;;;;;484266;246;1351;-73
2022/09/18 08:16:45;;;;;;;;;;;21.10;46.10;;;;;;484300;246;1232;-74
2022/09/18 08:18:46;;;;;;;;;;;21.10;46.10;;;;;;484332;246;1222;-74
2022/09/18 08:20:47;;;;;;;;;;;21.10;46.10;;;;;;484343;246;1257;-74
2022/09/18 08:22:49;;;;;;;;;;;21.00;46.30;;;;;;484323;246;1397;-73
2022/09/18 08:24:50;;;;;;;;;;;20.90;46.40;;;;;;484328;246;1213;-73
2022/09/18 08:26:51;;;;;;;;;;;20.90;46.60;;;;;;484531;246;2207;-73
2022/09/18 08:28:53;;;;;;;;;;;20.90;46.70;;;;;;484382;246;1311;-73
2022/09/18 08:30:54;;;;;;;;;;;20.90;46.80;;;;;;484335;246;1248;-73
2022/09/18 08:32:55;;;;;;;;;;;20.90;46.80;;;;;;484295;246;1162;-73
2022/09/18 08:34:58;;;;;;;;;;;20.90;46.80;;;;;;484318;246;1391;-73
2022/09/18 08:36:58;;;;;;;;;;;20.90;46.90;;;;;;484233;246;1382;-73
2022/09/18 08:39:00;;;;;;;;;;;20.90;47.00;;;;;;484328;246;1213;-73
2022/09/18 08:41:01;;;;;;;;;;;20.80;47.00;;;;;;484574;246;1186;-74
2022/09/18 08:43:02;;;;;;;;;;;20.80;47.10;;;;;;484354;246;1118;-73
2022/09/18 08:45:03;;;;;;;;;;;20.80;47.20;;;;;;484281;242;1206;-73
2022/09/18 08:47:05;;;;;;;;;;;20.80;47.20;;;;;;484365;246;2195;-74
2022/09/18 08:49:06;;;;;;;;;;;20.80;47.30;;;;;;484307;246;1145;-74
2022/09/18 08:51:07;;;;;;;;;;;20.80;47.30;;;;;;484317;246;1231;-74
2022/09/18 08:53:09;;;;;;;;;;;20.80;47.40;;;;;;484366;246;1212;-74
2022/09/18 08:55:10;;;;;;;;;;;20.90;47.30;;;;;;484345;242;1158;-73
2022/09/18 08:57:11;;;;;;;;;;;20.90;47.20;;;;;;484332;246;1124;-73
2022/09/18 08:59:13;;;;;;;;;;;20.90;47.10;;;;;;484399;246;1158;-73
2022/09/18 09:01:14;;;;;;;;;;;21.10;46.80;;;;;;484329;246;1077;-73
2022/09/18 09:03:15;;;;;;;;;;;21.20;46.60;;;;;;484570;246;1042;-73
2022/09/18 09:05:17;;;;;;;;;;;21.30;46.40;;;;;;484329;246;1065;-73
2022/09/18 09:07:18;;;;;;;;;;;21.40;46.10;;;;;;484360;246;2184;-73
2022/09/18 09:09:19;;;;;;;;;;;21.40;46.00;;;;;;484305;246;1016;-73
2022/09/18 09:11:21;;;;;;;;;;;21.50;46.00;;;;;;484317;246;1179;-73
2022/09/18 09:13:22;;;;;;;;;;;21.50;46.00;;;;;;484296;246;997;-73
2022/09/18 09:15:23;;;;;;;;;;;21.50;46.00;;;;;;484689;246;1154;-73
2022/09/18 09:17:25;;;;;;;;;;;21.50;45.90;;;;;;484387;246;1428;-73
2022/09/18 09:19:26;;;;;;;;;;;21.50;46.00;;;;;;484323;246;1223;-73
2022/09/18 09:21:28;;;;;;;;;;;21.50;46.00;;;;;;484471;246;1291;-73
2022/09/18 09:23:29;;;;;;;;;;;21.60;46.00;;;;;;484328;246;1176;-73
2022/09/18 09:25:30;;;;;;;;;;;21.60;45.80;;;;;;484384;246;1131;-74
2022/09/18 09:27:31;;;;;;;;;;;21.60;45.80;;;;;;484317;246;2260;-74
2022/09/18 09:29:33;;;;;;;;;;;21.60;45.70;;;;;;484370;246;1426;-74
2022/09/18 09:31:34;;;;;;;;;;;21.60;45.80;;;;;;484264;246;1288;-74
2022/09/18 09:33:36;;;;;;;;;;;21.60;45.70;;;;;;484549;246;1191;-74
2022/09/18 09:35:37;;;;;;;;;;;21.60;45.80;;;;;;484281;246;1196;-73
2022/09/18 09:37:38;;;;;;;;;;;21.70;45.70;;;;;;484333;246;1167;-74
2022/09/18 09:39:40;;;;;;;;;;;21.70;45.60;;;;;;484357;246;1243;-73
2022/09/18 09:41:41;;;;;;;;;;;21.70;45.70;;;;;;484336;246;1245;-74
2022/09/18 09:43:42;;;;;;;;;;;21.70;45.60;;;;;;484299;246;1168;-74
2022/09/18 09:45:44;;;;;;;;;;;21.70;45.70;;;;;;484383;246;1055;-74
2022/09/18 09:47:45;;;;;;;;;;;21.70;45.50;;;;;;484323;246;2257;-74
2022/09/18 09:49:46;;;;;;;;;;;21.80;45.50;;;;;;484348;246;1191;-74
2022/09/18 09:51:48;;;;;;;;;;;21.80;45.50;;;;;;484349;246;1096;-74
2022/09/18 09:53:52;;;;;;;;;;;21.80;45.60;;;;;;484356;246;1248;-74
2022/09/18 09:55:51;;;;;;;;;;;21.80;45.40;;;;;;484272;246;1470;-74
2022/09/18 09:57:52;;;;;;;;;;;21.80;45.40;;;;;;484319;246;1204;-73
2022/09/18 09:59:53;;;;;;;;;;;21.80;45.40;;;;;;484681;246;1132;-73
2022/09/18 10:01:55;;;;;;;;;;;21.80;45.50;;;;;;484360;246;1207;-73
2022/09/18 10:03:56;;;;;;;;;;;21.80;45.50;;;;;;484566;246;1202;-74
2022/09/18 10:05:57;;;;;;;;;;;21.80;45.50;;;;;;484477;246;1213;-74
2022/09/18 10:07:58;;;;;;;;;;;21.80;45.50;;;;;;484324;246;2121;-74
2022/09/18 10:10:00;;;;;;;;;;;21.80;45.50;;;;;;484461;246;1255;-74
2022/09/18 10:12:01;;;;;;;;;;;21.70;45.60;;;;;;484156;246;1163;-74
2022/09/18 10:14:03;;;;;;;;;;;21.80;45.60;;;;;;484388;246;1196;-74
2022/09/18 10:16:04;;;;;;;;;;;21.80;45.30;;;;;;484196;246;1153;-74
2022/09/18 10:18:05;;;;;;;;;;;21.80;45.40;;;;;;484342;246;1167;-74
2022/09/18 10:20:07;;;;;;;;;;;21.80;45.30;;;;;;484315;242;1107;-74
2022/09/18 10:22:08;;;;;;;;;;;21.80;45.30;;;;;;484231;243;1196;-74
2022/09/18 10:24:09;;;;;;;;;;;21.70;45.30;;;;;;484283;246;1262;-73
2022/09/18 10:26:11;;;;;;;;;;;21.80;45.30;;;;;;484170;242;1195;-73
2022/09/18 10:28:12;;;;;;;;;;;21.80;45.40;;;;;;484349;246;1200;-74
2022/09/18 10:30:14;;;;;;;;;;;21.80;45.30;;;;;;484342;246;1131;-74
2022/09/18 10:32:15;;;;;;;;;;;21.80;45.20;;;;;;484364;246;1192;-74
2022/09/18 10:34:16;;;;;;;;;;;21.80;45.30;;;;;;484584;246;1155;-74
2022/09/18 10:36:18;;;;;;;;;;;21.70;45.30;;;;;;484434;246;1136;-74
2022/09/18 10:38:19;;;;;;;;;;;21.70;45.40;;;;;;484347;246;1126;-74
2022/09/18 10:40:21;;;;;;;;;;;21.70;45.40;;;;;;484293;246;1142;-74
2022/09/18 10:42:22;;;;;;;;;;;21.70;45.30;;;;;;484616;246;1193;-74
2022/09/18 10:44:23;;;;;;;;;;;21.70;45.40;;;;;;484316;246;1204;-74
2022/09/18 10:46:25;;;;;;;;;;;21.70;45.30;;;;;;484305;242;2191;-74
2022/09/18 10:48:26;;;;;;;;;;;21.70;45.30;;;;;;484378;246;984;-74
2022/09/18 10:50:28;;;;;;;;;;;21.70;45.30;;;;;;484389;246;1239;-74
2022/09/18 10:52:30;;;;;;;;;;;21.80;45.30;;;;;;484363;246;1179;-74
2022/09/18 10:54:31;;;;;;;;;;;21.80;45.20;;;;;;484321;246;1407;-73
2022/09/18 10:56:32;;;;;;;;;;;21.80;45.00;;;;;;484759;242;1384;-73
2022/09/18 10:58:33;;;;;;;;;;;21.80;45.00;;;;;;484721;246;1210;-73
2022/09/18 11:00:35;;;;;;;;;;;21.80;45.10;;;;;;484346;246;1056;-73
2022/09/18 11:02:36;;;;;;;;;;;21.80;44.90;;;;;;484334;246;1299;-73
2022/09/18 11:04:38;;;;;;;;;;;21.80;45.10;;;;;;484323;246;1188;-73
2022/09/18 11:06:39;;;;;;;;;;;21.80;45.00;;;;;;484378;246;2160;-73
2022/09/18 11:08:40;;;;;;;;;;;21.80;45.10;;;;;;484332;246;1057;-73
2022/09/18 11:10:42;;;;;;;;;;;21.90;45.00;;;;;;484376;246;1041;-73
2022/09/18 11:12:43;;;;;;;;;;;21.80;45.00;;;;;;484330;242;1311;-73
2022/09/18 11:14:45;;;;;;;;;;;21.90;45.00;;;;;;484451;246;1090;-73
2022/09/18 11:16:46;;;;;;;;;;;21.80;45.00;;;;;;484247;246;1476;-73
2022/09/18 11:18:47;;;;;;;;;;;21.80;45.10;;;;;;484343;246;1166;-73
2022/09/18 11:20:48;;;;;;;;;;;21.80;45.10;;;;;;484287;246;1247;-73
2022/09/18 11:22:49;;;;;;;;;;;21.80;45.10;;;;;;484549;246;1132;-73
2022/09/18 11:24:51;;;;;;;;;;;21.80;45.00;;;;;;484388;243;1186;-73
2022/09/18 11:26:52;;;;;;;;;;;21.80;45.00;;;;;;484432;246;2156;-73
2022/09/18 11:28:53;;;;;;;;;;;21.90;45.00;;;;;;484293;246;1114;-73
2022/09/18 11:30:55;;;;;;;;;;;21.80;44.90;;;;;;484409;246;1234;-74
2022/09/18 11:32:57;;;;;;;;;;;21.80;44.90;;;;;;484282;246;1205;-73
2022/09/18 11:34:57;;;;;;;;;;;21.80;45.00;;;;;;484285;246;1478;-73
2022/09/18 11:36:59;;;;;;;;;;;21.80;44.90;;;;;;484608;246;1244;-73
2022/09/18 11:39:00;;;;;;;;;;;21.80;44.90;;;;;;484396;246;1103;-73
2022/09/18 11:41:03;;;;;;;;;;;21.80;44.90;;;;;;484343;246;1183;-73
2022/09/18 11:43:04;;;;;;;;;;;21.80;45.00;;;;;;484316;246;1420;-74
2022/09/18 11:45:04;;;;;;;;;;;21.80;45.00;;;;;;484303;246;1417;-74
2022/09/18 11:47:06;;;;;;;;;;;21.80;45.00;;;;;;484341;246;2188;-74
2022/09/18 11:49:07;;;;;;;;;;;21.80;45.00;;;;;;484584;246;1146;-74
2022/09/18 11:51:08;;;;;;;;;;;21.80;44.90;;;;;;484304;246;1183;-73
2022/09/18 11:53:09;;;;;;;;;;;21.80;44.90;;;;;;484354;246;1234;-73
2022/09/18 11:55:11;;;;;;;;;;;21.90;44.90;;;;;;484284;246;1170;-73
2022/09/18 11:57:12;;;;;;;;;;;21.80;44.90;;;;;;484327;246;1083;-73